createdAt,value
2023-04-30T00:00:13.409Z,99.90
2023-04-30T00:03:00.391Z,99.90
2023-04-30T00:05:51.526Z,99.90
2023-04-30T00:08:37.890Z,99.90
2023-04-30T00:11:25.786Z,99.90
2023-04-30T00:14:12.259Z,99.90
2023-04-30T00:16:58.560Z,99.90
2023-04-30T00:19:45.057Z,99.90
2023-04-30T00:22:33.363Z,99.90
2023-04-30T00:25:21.017Z,99.90
2023-04-30T00:28:07.328Z,99.90
2023-04-30T00:30:53.750Z,99.90
2023-04-30T00:33:40.096Z,99.90
2023-04-30T00:36:26.367Z,99.90
2023-04-30T00:39:13.956Z,99.90
2023-04-30T00:42:00.856Z,99.90
2023-04-30T00:44:47.363Z,99.90
2023-04-30T00:47:33.879Z,99.90
2023-04-30T00:50:20.873Z,99.90
2023-04-30T00:53:07.483Z,99.90
2023-04-30T00:55:56.215Z,99.90
2023-04-30T00:58:43.022Z,99.90
2023-04-30T01:01:29.908Z,99.90
2023-04-30T01:04:16.630Z,99.90
2023-04-30T01:07:03.450Z,99.90
2023-04-30T01:09:50.215Z,99.90
2023-04-30T01:12:45.639Z,99.90
2023-04-30T01:15:39.450Z,99.90
2023-04-30T01:18:30.123Z,99.90
2023-04-30T01:21:19.815Z,99.90
2023-04-30T01:24:42.788Z,99.90
2023-04-30T01:27:40.520Z,99.90
2023-04-30T01:30:29.874Z,99.90
2023-04-30T01:33:16.334Z,99.90
2023-04-30T01:36:21.840Z,99.90
2023-04-30T01:39:26.626Z,99.90
2023-04-30T01:42:18.665Z,99.90
2023-04-30T01:45:25.803Z,99.90
2023-04-30T01:48:23.891Z,99.90
2023-04-30T01:51:20.508Z,99.90
2023-04-30T01:54:12.570Z,99.90
2023-04-30T01:57:04.923Z,99.90
2023-04-30T01:59:52.701Z,99.90
2023-04-30T02:02:39.791Z,99.90
2023-04-30T02:05:28.782Z,99.90
2023-04-30T02:08:15.904Z,99.90
2023-04-30T02:11:01.988Z,99.90
2023-04-30T02:13:48.900Z,99.90
2023-04-30T02:16:35.310Z,99.90
2023-04-30T02:19:21.989Z,99.90
2023-04-30T02:22:09.842Z,99.90
2023-04-30T02:24:57.325Z,99.90
2023-04-30T02:27:43.969Z,99.90
2023-04-30T02:30:30.830Z,99.90
2023-04-30T02:33:17.291Z,99.90
2023-04-30T02:36:03.645Z,99.90
2023-04-30T02:38:51.297Z,99.90
2023-04-30T02:41:38.189Z,99.90
2023-04-30T02:44:24.857Z,99.90
2023-04-30T02:47:11.550Z,99.90
2023-04-30T02:49:58.383Z,99.90
2023-04-30T02:52:47.297Z,99.90
2023-04-30T02:55:34.870Z,99.90
2023-04-30T02:58:21.686Z,99.90
2023-04-30T03:01:08.188Z,99.90
2023-04-30T03:03:54.963Z,99.90
2023-04-30T03:06:41.755Z,99.90
2023-04-30T03:09:28.747Z,99.90
2023-04-30T03:12:16.543Z,99.90
2023-04-30T03:15:03.512Z,99.90
2023-04-30T03:17:50.473Z,99.90
2023-04-30T03:20:37.370Z,99.90
2023-04-30T03:23:23.791Z,99.90
2023-04-30T03:26:10.675Z,99.90
2023-04-30T03:28:58.402Z,99.90
2023-04-30T03:31:44.827Z,99.90
2023-04-30T03:34:32.596Z,99.90
2023-04-30T03:37:20.647Z,99.90
2023-04-30T03:40:08.553Z,99.90
2023-04-30T03:42:55.403Z,99.90
2023-04-30T03:45:43.340Z,99.90
2023-04-30T03:48:30.152Z,99.90
2023-04-30T03:51:16.893Z,99.90
2023-04-30T03:54:03.717Z,99.90
2023-04-30T03:56:50.247Z,99.90
2023-04-30T03:59:36.584Z,99.90
2023-04-30T04:02:24.477Z,99.90
2023-04-30T04:05:11.544Z,99.90
2023-04-30T04:07:58.206Z,99.90
2023-04-30T04:10:44.807Z,99.90
2023-04-30T04:13:31.412Z,99.90
2023-04-30T04:16:18.833Z,99.90
2023-04-30T04:19:06.737Z,99.90
2023-04-30T04:21:53.633Z,99.90
2023-04-30T04:24:41.710Z,99.90
2023-04-30T04:27:31.581Z,99.90
2023-04-30T04:30:18.435Z,99.90
2023-04-30T04:33:06.940Z,99.90
2023-04-30T04:35:57.926Z,99.90
2023-04-30T04:38:44.608Z,99.90
2023-04-30T04:41:32.614Z,99.90
2023-04-30T04:44:20.301Z,99.90
2023-04-30T04:47:10.973Z,99.90
2023-04-30T04:49:57.758Z,99.90
2023-04-30T04:52:45.983Z,99.90
2023-04-30T04:55:32.479Z,99.90
2023-04-30T04:58:19.216Z,99.90
2023-04-30T05:01:06.017Z,99.90
2023-04-30T05:03:53.915Z,99.90
2023-04-30T05:06:40.851Z,99.90
2023-04-30T05:09:28.955Z,99.90
2023-04-30T05:12:16.340Z,99.90
2023-04-30T05:15:03.027Z,99.90
2023-04-30T05:17:49.399Z,99.90
2023-04-30T05:20:36.035Z,99.90
2023-04-30T05:23:22.436Z,99.90
2023-04-30T05:26:10.117Z,99.90
2023-04-30T05:28:56.482Z,99.90
2023-04-30T05:31:42.978Z,99.90
2023-04-30T05:34:29.383Z,99.90
2023-04-30T05:37:17.555Z,99.90
2023-04-30T05:40:06.248Z,99.90
2023-04-30T05:42:54.355Z,99.90
2023-04-30T05:45:41.061Z,99.90
2023-04-30T05:48:27.756Z,99.90
2023-04-30T05:51:14.256Z,99.90
2023-04-30T05:54:00.763Z,99.90
2023-04-30T05:56:47.579Z,99.90
2023-04-30T05:59:35.400Z,99.90
2023-04-30T06:02:22.043Z,99.90
2023-04-30T06:05:09.705Z,99.90
2023-04-30T06:07:56.501Z,99.90
2023-04-30T06:10:43.246Z,99.90
2023-04-30T06:13:30.045Z,99.90
2023-04-30T06:16:17.860Z,99.90
2023-04-30T06:19:04.259Z,99.90
2023-04-30T06:21:51.043Z,99.90
2023-04-30T06:24:37.361Z,99.90
2023-04-30T06:27:23.923Z,99.90
2023-04-30T06:30:11.064Z,99.90
2023-04-30T06:32:58.970Z,99.90
2023-04-30T06:35:45.802Z,99.90
2023-04-30T06:38:32.247Z,99.90
2023-04-30T06:41:19.323Z,99.90
2023-04-30T06:44:06.327Z,99.90
2023-04-30T06:46:52.874Z,99.90
2023-04-30T06:49:41.131Z,99.90
2023-04-30T06:52:27.868Z,99.90
2023-04-30T06:55:14.359Z,99.90
2023-04-30T06:58:01.204Z,99.90
2023-04-30T07:00:47.627Z,99.90
2023-04-30T07:03:36.127Z,99.90
2023-04-30T07:06:24.728Z,99.90
2023-04-30T07:09:12.897Z,99.90
2023-04-30T07:11:59.794Z,99.90
2023-04-30T07:14:46.453Z,99.90
2023-04-30T07:17:32.897Z,99.90
2023-04-30T07:20:19.304Z,99.90
2023-04-30T07:23:07.135Z,99.90
2023-04-30T07:25:53.515Z,99.90
2023-04-30T07:28:40.608Z,99.90
2023-04-30T07:31:28.033Z,99.90
2023-04-30T07:34:14.578Z,99.90
2023-04-30T07:37:01.138Z,99.90
2023-04-30T07:39:49.072Z,99.90
2023-04-30T07:42:36.046Z,99.90
2023-04-30T07:45:22.557Z,99.90
2023-04-30T07:48:09.217Z,99.90
2023-04-30T07:50:56.750Z,99.90
2023-04-30T07:53:43.527Z,99.90
2023-04-30T07:56:31.197Z,99.90
2023-04-30T07:59:17.729Z,99.90
2023-04-30T08:02:04.700Z,99.90
2023-04-30T08:04:51.597Z,99.90
2023-04-30T08:07:38.166Z,99.90
2023-04-30T08:10:25.323Z,99.90
2023-04-30T08:13:13.395Z,99.90
2023-04-30T08:16:00.398Z,99.90
2023-04-30T08:18:49.221Z,99.90
2023-04-30T08:21:36.094Z,99.90
2023-04-30T08:24:23.018Z,99.90
2023-04-30T08:27:09.489Z,99.90
2023-04-30T08:29:57.305Z,99.90
2023-04-30T08:32:43.832Z,99.90
2023-04-30T08:35:30.696Z,99.90
2023-04-30T08:38:17.395Z,99.90
2023-04-30T08:41:10.283Z,99.90
2023-04-30T08:44:02.265Z,99.90
2023-04-30T08:46:53.216Z,99.90
2023-04-30T08:49:39.886Z,99.90
2023-04-30T08:52:27.794Z,99.90
2023-04-30T08:55:14.527Z,99.90
2023-04-30T08:58:00.920Z,99.90
2023-04-30T09:00:47.926Z,99.90
2023-04-30T09:03:36.063Z,99.90
2023-04-30T09:06:23.108Z,99.90
2023-04-30T09:09:12.636Z,99.90
2023-04-30T09:12:20.430Z,99.90
2023-04-30T09:15:09.521Z,99.90
2023-04-30T09:18:12.388Z,99.90
2023-04-30T09:21:02.957Z,99.90
2023-04-30T09:23:57.200Z,99.90
2023-04-30T09:26:43.698Z,99.90
2023-04-30T09:29:38.485Z,99.90
2023-04-30T09:32:25.005Z,99.90
2023-04-30T09:35:30.400Z,99.90
2023-04-30T09:38:29.060Z,99.90
2023-04-30T09:41:26.166Z,99.90
2023-04-30T09:44:28.370Z,99.90
2023-04-30T09:47:16.889Z,99.90
2023-04-30T09:50:03.787Z,99.90
2023-04-30T09:52:54.691Z,99.90
2023-04-30T09:55:45.012Z,99.90
2023-04-30T09:58:37.328Z,99.90
2023-04-30T10:01:27.065Z,99.90
2023-04-30T10:04:14.215Z,99.90
2023-04-30T10:07:03.621Z,99.90
2023-04-30T10:09:52.208Z,99.90
2023-04-30T10:12:44.692Z,99.90
2023-04-30T10:15:39.164Z,99.90
2023-04-30T10:18:32.257Z,99.90
2023-04-30T10:21:19.460Z,99.90
2023-04-30T10:24:06.634Z,99.90
2023-04-30T10:26:53.523Z,99.90
2023-04-30T10:29:41.263Z,99.90
2023-04-30T10:32:38.631Z,99.90
2023-04-30T10:35:28.332Z,99.90
2023-04-30T10:38:23.123Z,99.90
2023-04-30T10:41:10.655Z,99.90
2023-04-30T10:44:01.689Z,99.90
2023-04-30T10:46:50.212Z,99.90
2023-04-30T10:49:37.205Z,99.90
2023-04-30T10:52:29.681Z,99.90
2023-04-30T10:55:19.001Z,99.90
2023-04-30T10:58:25.171Z,99.90
2023-04-30T11:01:14.829Z,99.90
2023-04-30T11:04:10.071Z,99.90
2023-04-30T11:07:12.620Z,99.90
2023-04-30T11:09:59.262Z,99.90
2023-04-30T11:12:50.401Z,99.90
2023-04-30T11:15:42.229Z,99.90
2023-04-30T11:18:29.151Z,99.90
2023-04-30T11:21:16.878Z,99.60
2023-04-30T11:24:05.099Z,99.20
2023-04-30T11:27:05.390Z,99.40
2023-04-30T11:29:53.506Z,99.30
2023-04-30T11:32:41.268Z,99.10
2023-04-30T11:35:30.210Z,98.50
2023-04-30T11:38:19.328Z,97.90
2023-04-30T11:41:06.440Z,97.60
2023-04-30T11:43:53.114Z,98.10
2023-04-30T11:46:42.903Z,97.80
2023-04-30T11:49:29.683Z,98.40
2023-04-30T11:52:16.312Z,98.80
2023-04-30T11:55:08.046Z,98.40
2023-04-30T11:57:56.147Z,98.10
2023-04-30T12:00:43.102Z,98.50
2023-04-30T12:03:30.627Z,98.40
2023-04-30T12:06:24.070Z,98.30
2023-04-30T12:09:11.733Z,98.80
2023-04-30T12:12:00.022Z,98.00
2023-04-30T12:14:47.166Z,98.10
2023-04-30T12:17:35.629Z,98.20
2023-04-30T12:20:23.085Z,98.50
2023-04-30T12:23:10.339Z,98.30
2023-04-30T12:26:01.050Z,98.50
2023-04-30T12:28:50.070Z,98.10
2023-04-30T12:31:38.611Z,98.20
2023-04-30T12:34:28.022Z,98.30
2023-04-30T12:37:17.206Z,98.10
2023-04-30T12:40:04.352Z,98.40
2023-04-30T12:42:51.537Z,98.30
2023-04-30T12:45:51.448Z,98.20
2023-04-30T12:48:45.328Z,97.60
2023-04-30T12:51:35.968Z,97.80
2023-04-30T12:54:29.999Z,97.60
2023-04-30T12:57:16.411Z,98.20
2023-04-30T13:00:05.565Z,98.40
2023-04-30T13:02:53.636Z,98.00
2023-04-30T13:05:41.301Z,98.70
2023-04-30T13:08:27.947Z,97.60
2023-04-30T13:11:14.456Z,98.10
2023-04-30T13:14:01.328Z,97.80
2023-04-30T13:16:48.684Z,98.10
2023-04-30T13:19:36.668Z,97.80
2023-04-30T13:22:25.170Z,98.00
2023-04-30T13:25:12.074Z,97.50
2023-04-30T13:27:58.761Z,97.70
2023-04-30T13:30:45.306Z,98.10
2023-04-30T13:33:31.932Z,97.80
2023-04-30T13:36:19.999Z,97.10
2023-04-30T13:39:06.834Z,97.90
2023-04-30T13:41:53.372Z,97.50
2023-04-30T13:44:40.371Z,97.00
2023-04-30T13:47:26.962Z,97.10
2023-04-30T13:50:13.890Z,96.60
2023-04-30T13:53:02.091Z,97.30
2023-04-30T13:55:48.533Z,97.30
2023-04-30T13:58:34.964Z,97.00
2023-04-30T14:01:21.327Z,97.20
2023-04-30T14:04:08.436Z,97.40
2023-04-30T14:06:56.624Z,97.50
2023-04-30T14:09:44.528Z,97.40
2023-04-30T14:12:31.416Z,97.20
2023-04-30T14:15:17.811Z,96.70
2023-04-30T14:18:04.777Z,96.70
2023-04-30T14:20:51.414Z,96.90
2023-04-30T14:23:38.696Z,96.60
2023-04-30T14:26:26.656Z,96.80
2023-04-30T14:29:13.498Z,96.60
2023-04-30T14:32:01.326Z,96.70
2023-04-30T14:34:48.275Z,97.10
2023-04-30T14:37:34.820Z,97.40
2023-04-30T14:40:21.804Z,96.70
2023-04-30T14:43:09.508Z,96.20
2023-04-30T14:45:56.383Z,96.90
2023-04-30T14:48:42.981Z,97.20
2023-04-30T14:51:29.647Z,97.20
2023-04-30T14:54:16.381Z,97.40
2023-04-30T14:57:04.007Z,97.00
2023-04-30T14:59:55.087Z,97.10
2023-04-30T15:02:42.195Z,96.90
2023-04-30T15:05:30.386Z,97.30
2023-04-30T15:08:17.429Z,97.20
2023-04-30T15:11:06.944Z,97.20
2023-04-30T15:13:55.205Z,97.20
2023-04-30T15:16:43.282Z,96.30
2023-04-30T15:19:30.514Z,96.10
2023-04-30T15:22:17.305Z,96.20
2023-04-30T15:25:05.602Z,96.00
2023-04-30T15:27:52.316Z,96.20
2023-04-30T15:30:38.859Z,96.30
2023-04-30T15:33:28.681Z,96.40
2023-04-30T15:36:15.324Z,96.60
2023-04-30T15:39:01.555Z,96.00
2023-04-30T15:41:47.912Z,97.00
2023-04-30T15:44:34.245Z,97.00
2023-04-30T15:47:21.871Z,96.60
2023-04-30T15:50:12.422Z,96.40
2023-04-30T15:52:59.379Z,96.30
2023-04-30T15:55:46.627Z,96.90
2023-04-30T15:58:33.397Z,97.30
2023-04-30T16:01:19.839Z,96.60
2023-04-30T16:04:07.079Z,96.80
2023-04-30T16:06:56.972Z,96.30
2023-04-30T16:09:45.750Z,96.80
2023-04-30T16:12:34.133Z,97.00
2023-04-30T16:15:20.969Z,96.80
2023-04-30T16:18:07.717Z,96.90
2023-04-30T16:20:54.015Z,97.50
2023-04-30T16:23:41.833Z,97.20
2023-04-30T16:26:28.601Z,96.90
2023-04-30T16:29:15.193Z,96.80
2023-04-30T16:32:01.929Z,96.90
2023-04-30T16:34:48.567Z,97.10
2023-04-30T16:37:34.928Z,97.50
2023-04-30T16:40:22.574Z,97.20
2023-04-30T16:43:09.482Z,96.90
2023-04-30T16:45:56.155Z,97.40
2023-04-30T16:48:43.162Z,97.60
2023-04-30T16:51:30.210Z,97.70
2023-04-30T16:54:16.550Z,97.40
2023-04-30T16:57:04.684Z,97.40
2023-04-30T16:59:51.206Z,97.80
2023-04-30T17:02:38.147Z,97.10
2023-04-30T17:05:25.168Z,97.40
2023-04-30T17:08:11.996Z,97.80
2023-04-30T17:10:58.271Z,97.80
2023-04-30T17:13:46.043Z,97.70
2023-04-30T17:16:32.657Z,97.60
2023-04-30T17:19:19.335Z,97.80
2023-04-30T17:22:06.103Z,97.70
2023-04-30T17:24:52.538Z,98.00
2023-04-30T17:27:39.267Z,98.00
2023-04-30T17:30:27.205Z,98.30
2023-04-30T17:33:13.771Z,98.30
2023-04-30T17:36:00.602Z,98.50
2023-04-30T17:38:47.068Z,98.60
2023-04-30T17:41:33.655Z,99.10
2023-04-30T17:44:19.943Z,99.10
2023-04-30T17:47:07.744Z,99.60
2023-04-30T17:49:54.717Z,99.90
2023-04-30T17:52:41.654Z,99.90
2023-04-30T17:55:28.239Z,99.90
2023-04-30T17:58:14.616Z,99.90
2023-04-30T18:01:03.443Z,99.90
2023-04-30T18:03:51.608Z,99.90
2023-04-30T18:06:38.386Z,99.90
2023-04-30T18:09:25.421Z,99.90
2023-04-30T18:12:12.372Z,99.90
2023-04-30T18:14:59.072Z,99.90
2023-04-30T18:17:45.640Z,99.90
2023-04-30T18:20:33.577Z,99.90
2023-04-30T18:23:20.966Z,99.90
2023-04-30T18:26:08.070Z,99.90
2023-04-30T18:28:55.006Z,99.90
2023-04-30T18:31:41.483Z,99.90
2023-04-30T18:34:28.408Z,99.90
2023-04-30T18:37:17.773Z,99.90
2023-04-30T18:40:05.037Z,99.90
2023-04-30T18:42:51.922Z,99.90
2023-04-30T18:45:38.932Z,99.90
2023-04-30T18:48:25.695Z,99.90
2023-04-30T18:51:12.078Z,99.90
2023-04-30T18:54:00.191Z,99.90
2023-04-30T18:56:47.117Z,99.90
2023-04-30T18:59:34.133Z,99.90
2023-04-30T19:02:21.838Z,99.90
2023-04-30T19:05:09.191Z,99.90
2023-04-30T19:07:55.703Z,99.90
2023-04-30T19:10:43.526Z,99.90
2023-04-30T19:13:29.891Z,99.90
2023-04-30T19:16:16.938Z,99.90
2023-04-30T19:19:03.926Z,99.90
2023-04-30T19:21:50.615Z,99.90
2023-04-30T19:24:37.455Z,99.90
2023-04-30T19:27:25.171Z,99.90
2023-04-30T19:30:12.990Z,99.90
2023-04-30T19:32:59.553Z,99.90
2023-04-30T19:35:49.417Z,99.90
2023-04-30T19:38:36.142Z,99.90
2023-04-30T19:41:22.674Z,99.90
2023-04-30T19:44:11.562Z,99.90
2023-04-30T19:46:58.818Z,99.90
2023-04-30T19:49:47.281Z,99.90
2023-04-30T19:52:34.103Z,99.90
2023-04-30T19:55:21.422Z,99.90
2023-04-30T19:58:08.125Z,99.90
2023-04-30T20:00:56.523Z,99.90
2023-04-30T20:03:43.759Z,99.90
2023-04-30T20:06:30.346Z,99.90
2023-04-30T20:09:17.007Z,99.90
2023-04-30T20:12:04.163Z,99.90
2023-04-30T20:14:50.797Z,99.90
2023-04-30T20:17:38.673Z,99.90
2023-04-30T20:20:25.461Z,99.90
2023-04-30T20:23:13.942Z,99.90
2023-04-30T20:26:00.728Z,99.90
2023-04-30T20:28:47.182Z,99.90
2023-04-30T20:31:35.431Z,99.90
2023-04-30T20:34:23.282Z,99.90
2023-04-30T20:37:10.184Z,99.90
2023-04-30T20:39:56.940Z,99.90
2023-04-30T20:42:43.481Z,99.90
2023-04-30T20:45:30.375Z,99.90
2023-04-30T20:48:17.109Z,99.90
2023-04-30T20:51:05.157Z,99.90
2023-04-30T20:53:51.847Z,99.90
2023-04-30T20:56:38.904Z,99.90
2023-04-30T20:59:25.322Z,99.90
2023-04-30T21:02:11.760Z,99.90
2023-04-30T21:05:04.127Z,99.90
2023-04-30T21:07:52.741Z,99.90
2023-04-30T21:10:39.475Z,99.90
2023-04-30T21:13:25.742Z,99.90
2023-04-30T21:16:12.233Z,99.90
2023-04-30T21:18:59.490Z,99.90
2023-04-30T21:21:46.422Z,99.90
2023-04-30T21:24:34.359Z,99.90
2023-04-30T21:27:20.843Z,99.90
2023-04-30T21:30:08.658Z,99.90
2023-04-30T21:32:58.224Z,99.90
2023-04-30T21:35:45.858Z,99.90
2023-04-30T21:38:32.633Z,99.90
2023-04-30T21:41:21.659Z,99.90
2023-04-30T21:44:08.512Z,99.90
2023-04-30T21:46:55.191Z,99.90
2023-04-30T21:49:42.680Z,99.90
2023-04-30T21:52:29.443Z,99.90
2023-04-30T21:55:15.835Z,99.90
2023-04-30T21:58:03.644Z,99.90
2023-04-30T22:00:50.724Z,99.90
2023-04-30T22:03:37.093Z,99.90
2023-04-30T22:06:24.468Z,99.90
2023-04-30T22:09:11.210Z,99.90
2023-04-30T22:11:57.693Z,99.90
2023-04-30T22:14:45.614Z,99.90
2023-04-30T22:17:32.635Z,99.90
2023-04-30T22:20:19.517Z,99.90
2023-04-30T22:23:06.595Z,99.90
2023-04-30T22:25:53.328Z,99.90
2023-04-30T22:28:40.247Z,99.90
2023-04-30T22:31:28.088Z,99.90
2023-04-30T22:34:15.505Z,99.90
2023-04-30T22:37:03.375Z,99.90
2023-04-30T22:39:50.053Z,99.90
2023-04-30T22:42:36.610Z,99.90
2023-04-30T22:45:23.400Z,99.90
2023-04-30T22:48:11.464Z,99.90
2023-04-30T22:50:58.781Z,99.90
2023-04-30T22:53:45.597Z,99.90
2023-04-30T22:56:33.851Z,99.90
2023-04-30T22:59:20.435Z,99.90
2023-04-30T23:02:07.127Z,99.90
2023-04-30T23:04:55.201Z,99.90
2023-04-30T23:07:41.920Z,99.90
2023-04-30T23:10:28.398Z,99.90
2023-04-30T23:13:15.543Z,99.90
2023-04-30T23:16:05.327Z,99.90
2023-04-30T23:18:52.030Z,99.90
2023-04-30T23:21:40.242Z,99.90
2023-04-30T23:24:27.101Z,99.90
2023-04-30T23:27:13.538Z,99.90
2023-04-30T23:29:59.826Z,99.90
2023-04-30T23:32:46.854Z,99.90
2023-04-30T23:35:33.535Z,99.90
2023-04-30T23:38:21.255Z,99.90
2023-04-30T23:41:08.668Z,99.90
2023-04-30T23:43:55.220Z,99.90
2023-04-30T23:46:42.387Z,99.90
2023-04-30T23:49:29.195Z,99.90
2023-04-30T23:52:16.359Z,99.90
2023-04-30T23:55:04.717Z,99.90
2023-04-30T23:57:51.111Z,99.90
